Time;durP1;ratioP1;P1;durP2;ratioP2;P2;SDS_P1;SDS_P2;PMS_P1;PMS_P2;Temp;Humidity;BMP_temperature;BMP_pressure;BME280_temperature;BME280_humidity;BME280_pressure;Samples;Min_cycle;Max_cycle;Signal;HPM_P1;HPM_P2
2022/07/01 00:01:22;;;;;;;15.23;11.13;;;;;;;15.46;78.65;101427.53;4996748;28;20036;-85
2022/07/01 00:03:50;;;;;;;13.55;10.80;;;;;;;15.21;79.39;101430.22;4996438;28;20120;-84
2022/07/01 00:06:17;;;;;;;13.70;9.80;;;;;;;15.09;80.31;101424.00;5013993;28;20096;-83
2022/07/01 00:08:42;;;;;;;13.10;10.07;;;;;;;15.06;79.98;101421.31;5028965;28;20033;-84
2022/07/01 00:11:08;;;;;;;13.85;10.20;;;;;;;15.09;80.03;101419.56;5012612;28;20033;-84
2022/07/01 00:13:33;;;;;;;12.65;9.63;;;;;;;14.97;80.05;101403.56;5012381;28;20041;-84
2022/07/01 00:15:59;;;;;;;10.82;9.10;;;;;;;15.08;79.97;101414.25;5012964;28;20048;-84
2022/07/01 00:18:24;;;;;;;12.65;9.60;;;;;;;15.03;79.73;101407.13;5028857;28;20476;-84
2022/07/01 00:20:50;;;;;;;12.32;8.85;;;;;;;15.10;79.38;101410.69;5013911;28;20034;-84
2022/07/01 00:23:17;;;;;;;12.68;9.65;;;;;;;15.12;79.44;101416.91;5012632;28;20037;-84
2022/07/01 00:25:43;;;;;;;14.18;9.55;;;;;;;15.10;79.45;101408.00;5012484;28;20128;-84
2022/07/01 00:28:08;;;;;;;12.07;8.77;;;;;;;15.13;79.48;101413.34;5013846;28;20033;-84
2022/07/01 00:30:34;;;;;;;13.23;9.48;;;;;;;15.16;79.12;101417.78;5013631;28;20037;-84
2022/07/01 00:32:59;;;;;;;10.75;9.27;;;;;;;15.13;79.15;101424.00;5012211;28;20405;-83
2022/07/01 00:35:25;;;;;;;14.15;9.48;;;;;;;15.09;79.11;101413.34;5012421;28;20059;-84
2022/07/01 00:37:50;;;;;;;17.20;9.30;;;;;;;15.20;79.42;101403.56;5028782;28;20038;-84
2022/07/01 00:40:16;;;;;;;12.52;9.50;;;;;;;15.18;78.98;101408.03;4996133;28;20033;-84
2022/07/01 00:42:42;;;;;;;14.32;10.23;;;;;;;15.14;79.51;101414.22;5018552;28;20084;-83
2022/07/01 00:45:09;;;;;;;13.55;10.20;;;;;;;15.08;79.62;101401.81;5018664;28;20041;-83
2022/07/01 00:47:36;;;;;;;14.90;10.05;;;;;;;15.07;79.68;101405.34;5018391;28;20064;-84
2022/07/01 00:50:06;;;;;;;13.65;10.07;;;;;;;15.15;79.57;101398.25;5020237;28;20072;-84
2022/07/01 00:52:32;;;;;;;16.85;10.88;;;;;;;15.18;79.59;101384.94;5020338;28;20037;-84
2022/07/01 00:55:02;;;;;;;12.93;10.15;;;;;;;15.17;80.03;101391.16;5019946;28;20038;-84
2022/07/01 00:57:30;;;;;;;16.10;10.57;;;;;;;15.07;80.37;101413.31;5019779;28;20100;-84
2022/07/01 00:59:56;;;;;;;13.60;10.48;;;;;;;15.07;80.35;101401.78;5002387;28;20458;-84
2022/07/01 01:02:21;;;;;;;13.60;10.05;;;;;;;15.12;80.10;101398.28;5018831;28;20544;-84
2022/07/01 01:04:47;;;;;;;15.68;10.23;;;;;;;15.19;80.30;101388.50;5019891;28;20040;-84
2022/07/01 01:07:13;;;;;;;14.10;10.55;;;;;;;15.21;79.65;101408.03;5019855;28;20116;-84
2022/07/01 01:09:39;;;;;;;13.23;10.23;;;;;;;15.19;80.18;101420.44;5002229;28;20034;-84
2022/07/01 01:12:05;;;;;;;17.95;11.10;;;;;;;15.15;80.23;101432.84;5021377;28;20462;-84
2022/07/01 01:14:46;;;;;;;15.25;10.43;;;;;;;15.16;80.01;101434.66;5020522;28;20132;-84
2022/07/01 01:17:12;;;;;;;16.33;10.30;;;;;;;15.12;80.55;101427.56;5019553;28;20042;-83
2022/07/01 01:19:38;;;;;;;13.82;10.90;;;;;;;15.07;80.31;101437.28;5018671;28;20038;-84
2022/07/01 01:22:03;;;;;;;14.02;10.02;;;;;;;15.02;80.72;101441.72;5018838;28;20061;-84
2022/07/01 01:24:29;;;;;;;13.35;10.82;;;;;;;15.01;80.83;101450.59;5002126;28;20494;-84
2022/07/01 01:26:55;;;;;;;13.90;10.63;;;;;;;14.98;80.81;101450.56;5019779;28;20112;-84
2022/07/01 01:29:20;;;;;;;14.27;10.63;;;;;;;15.02;81.13;101457.69;5019658;28;20527;-84
2022/07/01 01:31:46;;;;;;;16.13;11.50;;;;;;;14.95;81.21;101463.91;5018600;28;20447;-84
2022/07/01 01:34:12;;;;;;;16.83;10.57;;;;;;;14.99;81.63;101453.25;5018302;28;20469;-84
2022/07/01 01:36:37;;;;;;;16.27;10.60;;;;;;;15.03;81.01;101444.41;5001937;28;20044;-84
2022/07/01 01:39:15;;;;;;;15.45;10.43;;;;;;;15.12;81.03;101455.94;5018322;28;20026;-84
2022/07/01 01:41:41;;;;;;;15.23;9.52;;;;;;;15.24;80.73;101455.94;5018209;28;20073;-84
2022/07/01 01:44:09;;;;;;;15.57;10.95;;;;;;;15.20;80.24;101455.06;5018350;28;20443;-84
2022/07/01 01:46:36;;;;;;;13.93;10.60;;;;;;;15.20;80.80;101457.75;5018269;28;20068;-84
2022/07/01 01:49:02;;;;;;;13.73;10.35;;;;;;;15.22;80.90;101468.38;5019454;28;20030;-84
2022/07/01 01:51:28;;;;;;;15.52;10.95;;;;;;;15.20;80.63;101457.75;5018284;28;20034;-84
2022/07/01 01:53:54;;;;;;;18.90;11.45;;;;;;;15.25;80.36;101453.31;5014219;28;20026;-84
2022/07/01 01:56:19;;;;;;;15.50;10.63;;;;;;;15.23;80.39;101447.06;4998662;28;20038;-85
2022/07/01 01:58:44;;;;;;;18.80;11.13;;;;;;;15.26;80.54;101448.88;5016224;28;20457;-84
2022/07/01 02:01:11;;;;;;;14.23;9.60;;;;;;;15.30;80.69;101445.31;5015130;28;20060;-84
2022/07/01 02:03:37;;;;;;;14.52;11.23;;;;;;;15.34;80.41;101460.41;5015095;28;20486;-84
2022/07/01 02:06:06;;;;;;;19.50;11.45;;;;;;;15.39;80.10;101455.09;4998866;28;20117;-84
2022/07/01 02:08:32;;;;;;;17.85;11.57;;;;;;;15.25;80.22;101447.97;5014849;28;20033;-83
2022/07/01 02:10:58;;;;;;;15.75;11.43;;;;;;;15.24;80.73;101458.59;5015932;28;20424;-83
2022/07/01 02:13:23;;;;;;;19.10;12.82;;;;;;;15.20;80.07;101468.38;5016087;28;20036;-83
2022/07/01 02:15:49;;;;;;;17.50;11.35;;;;;;;15.23;80.78;101481.69;5015998;28;20038;-84
2022/07/01 02:18:15;;;;;;;19.60;12.48;;;;;;;15.11;80.89;101488.75;5014816;28;20390;-84
2022/07/01 02:20:41;;;;;;;16.70;12.00;;;;;;;15.02;81.25;101489.63;5015882;28;20387;-84
2022/07/01 02:23:07;;;;;;;18.40;13.25;;;;;;;14.94;81.72;101486.94;5014607;28;20034;-84
2022/07/01 02:25:33;;;;;;;23.33;12.95;;;;;;;15.00;81.72;101494.06;4998358;28;20127;-84
2022/07/01 02:27:58;;;;;;;19.27;12.80;;;;;;;14.93;82.20;101495.81;5014490;28;20034;-83
2022/07/01 02:30:24;;;;;;;18.25;13.05;;;;;;;14.96;81.91;101505.59;5015711;28;20030;-84
2022/07/01 02:32:50;;;;;;;21.05;12.82;;;;;;;14.95;81.52;101477.19;5014359;28;20490;-84
2022/07/01 02:35:15;;;;;;;17.77;12.35;;;;;;;14.93;80.98;101461.22;5015664;28;20042;-83
2022/07/01 02:37:40;;;;;;;18.23;12.45;;;;;;;15.02;81.11;101453.25;5014173;28;20040;-84
2022/07/01 02:40:06;;;;;;;21.30;13.45;;;;;;;15.10;81.10;101468.34;5014042;28;20108;-84
2022/07/01 02:42:35;;;;;;;19.05;13.27;;;;;;;14.98;81.03;101474.53;5014580;28;20092;-83
2022/07/01 02:45:02;;;;;;;22.27;13.20;;;;;;;14.93;81.75;101471.84;5014691;28;20042;-84
2022/07/01 02:47:35;;;;;;;21.98;13.38;;;;;;;14.91;81.58;101454.13;5014306;28;20029;-84
2022/07/01 02:50:03;;;;;;;20.38;13.02;;;;;;;14.90;81.14;101465.63;5014114;28;20034;-84
2022/07/01 02:52:29;;;;;;;18.40;13.27;;;;;;;14.93;81.44;101471.84;5015356;28;20096;-84
2022/07/01 02:54:55;;;;;;;17.83;12.68;;;;;;;14.93;81.36;101481.63;5014143;28;20038;-84
2022/07/01 02:57:20;;;;;;;20.52;12.75;;;;;;;14.92;81.36;101478.06;5014461;28;20121;-84
2022/07/01 02:59:46;;;;;;;19.10;12.40;;;;;;;14.84;81.54;101474.50;5014125;28;20088;-84
2022/07/01 03:02:11;;;;;;;19.20;12.60;;;;;;;14.91;81.66;101494.03;4997452;28;20045;-84
2022/07/01 03:04:36;;;;;;;18.98;13.00;;;;;;;14.90;81.75;101492.25;5013555;28;20065;-84
2022/07/01 03:07:02;;;;;;;22.75;12.57;;;;;;;14.87;82.33;101486.94;5013521;28;20037;-84
2022/07/01 03:09:28;;;;;;;20.60;13.18;;;;;;;14.83;82.11;101478.03;5013930;28;20053;-83
2022/07/01 03:11:53;;;;;;;21.33;13.82;;;;;;;14.93;81.83;101495.81;5014972;28;20026;-83
2022/07/01 03:14:19;;;;;;;23.48;14.27;;;;;;;14.88;81.94;101494.91;5014996;28;20042;-84
2022/07/01 03:16:46;;;;;;;22.35;14.38;;;;;;;14.95;81.65;101498.50;5014732;28;20038;-83
2022/07/01 03:19:12;;;;;;;25.40;14.77;;;;;;;14.97;82.06;101512.69;5013729;28;20424;-84
2022/07/01 03:21:37;;;;;;;22.27;14.27;;;;;;;14.96;81.54;101503.81;5014997;28;20553;-84
2022/07/01 03:24:03;;;;;;;21.52;14.95;;;;;;;14.95;82.12;101494.06;5014536;28;20030;-84
2022/07/01 03:26:28;;;;;;;26.80;15.27;;;;;;;14.94;82.19;101484.25;5013425;28;20030;-83
2022/07/01 03:28:54;;;;;;;22.65;14.98;;;;;;;14.92;82.28;101493.16;5013378;28;20036;-84
2022/07/01 03:31:19;;;;;;;21.33;15.20;;;;;;;15.00;81.67;101494.06;5013839;28;20037;-83
2022/07/01 03:33:44;;;;;;;25.58;16.45;;;;;;;14.96;82.04;101501.16;4996941;28;20175;-84
2022/07/01 03:36:10;;;;;;;24.58;16.25;;;;;;;14.87;82.12;101501.13;4996833;28;20033;-83
2022/07/01 03:38:35;;;;;;;22.67;16.08;;;;;;;14.87;82.28;101509.09;5013087;28;20386;-83
2022/07/01 03:41:01;;;;;;;25.95;17.08;;;;;;;14.82;82.11;101516.19;5013360;28;20470;-84
2022/07/01 03:43:26;;;;;;;26.30;16.20;;;;;;;14.87;82.67;101534.81;5013281;28;20033;-84
2022/07/01 03:45:51;;;;;;;28.38;16.65;;;;;;;14.78;82.86;101527.69;5014147;28;20113;-83
2022/07/01 03:48:17;;;;;;;29.08;18.00;;;;;;;14.71;83.46;101537.41;5013235;28;20492;-84
2022/07/01 03:50:42;;;;;;;25.55;17.45;;;;;;;14.62;83.74;101544.47;5013047;28;20045;-84
2022/07/01 03:55:52;;;;;;;25.80;16.55;;;;;;;14.49;84.38;101556.78;5014298;28;20179;-84
2022/07/01 03:58:17;;;;;;;22.42;16.40;;;;;;;14.53;84.14;101556.81;5012727;28;20124;-84
2022/07/01 04:00:43;;;;;;;26.25;16.38;;;;;;;14.51;83.44;101550.59;4996612;28;20077;-84
2022/07/01 04:03:08;;;;;;;26.48;17.27;;;;;;;14.55;83.48;101562.13;4996341;28;20030;-84
2022/07/01 04:05:35;;;;;;;26.00;16.15;;;;;;;14.60;83.91;101563.03;5012947;28;20064;-84
2022/07/01 04:08:05;;;;;;;24.08;15.68;;;;;;;14.66;83.50;101555.13;5012581;28;20038;-84
2022/07/01 04:10:34;;;;;;;28.00;16.33;;;;;;;14.66;83.75;101544.47;5014184;28;20119;-83
2022/07/01 04:13:03;;;;;;;28.00;16.33;;;;;;;14.80;83.09;101552.53;5013779;28;20033;-83
2022/07/01 04:15:28;;;;;;;22.92;15.02;;;;;;;14.83;82.68;101547.22;5012064;28;20050;-83
2022/07/01 04:17:55;;;;;;;23.55;16.67;;;;;;;14.78;82.89;101541.88;5013966;28;20037;-82
2022/07/01 04:20:20;;;;;;;24.33;15.82;;;;;;;14.86;82.53;101562.28;4996324;28;20048;-84
2022/07/01 04:22:46;;;;;;;26.42;17.45;;;;;;;14.87;82.38;101564.09;5012895;28;20034;-84
2022/07/01 04:25:11;;;;;;;23.25;16.58;;;;;;;14.85;82.05;101563.19;5013060;28;20537;-83
2022/07/01 04:27:37;;;;;;;23.67;16.60;;;;;;;14.84;82.16;101551.66;4996226;28;20390;-84
2022/07/01 04:30:03;;;;;;;25.73;18.58;;;;;;;14.75;82.52;101539.19;5012642;28;20129;-84
2022/07/01 04:32:28;;;;;;;30.77;19.42;;;;;;;14.80;82.13;101549.84;5013857;28;20081;-83
2022/07/01 04:34:54;;;;;;;30.58;20.88;;;;;;;14.81;82.23;101550.75;5012598;28;20034;-83
2022/07/01 04:37:19;;;;;;;31.10;21.27;;;;;;;14.74;82.20;101553.38;5012853;28;20606;-83
2022/07/01 04:39:45;;;;;;;31.23;21.73;;;;;;;14.70;82.40;101559.56;5013797;28;20488;-83
2022/07/01 04:42:10;;;;;;;28.58;20.13;;;;;;;14.71;82.25;101576.41;5012389;28;20490;-82
2022/07/01 04:44:37;;;;;;;31.75;21.55;;;;;;;14.76;nan;101580.00;5013769;28;20118;-84
2022/07/01 04:47:04;;;;;;;29.70;20.35;;;;;;;14.79;81.85;101580.03;5012409;28;20030;-83
2022/07/01 04:49:30;;;;;;;35.60;20.73;;;;;;;14.80;81.93;101583.56;5013715;28;20037;-83
2022/07/01 04:51:57;;;;;;;28.27;18.50;;;;;;;14.77;81.57;101573.78;5012583;28;20417;-83
2022/07/01 04:54:23;;;;;;;22.48;16.27;;;;;;;14.76;81.90;101564.91;5013332;28;20029;-83
2022/07/01 04:56:49;;;;;;;23.42;15.70;;;;;;;14.76;81.73;101577.34;5012392;28;20034;-83
2022/07/01 04:59:15;;;;;;;23.92;16.10;;;;;;;14.73;82.44;101572.91;5013673;28;20109;-83
2022/07/01 05:01:42;;;;;;;21.42;15.75;;;;;;;14.67;82.61;101571.97;5013536;28;20030;-84
2022/07/01 05:04:08;;;;;;;20.30;15.15;;;;;;;14.64;83.12;101569.28;5012143;28;20526;-83
2022/07/01 05:06:33;;;;;;;24.13;14.68;;;;;;;14.65;82.96;101571.97;5012144;28;20121;-83
2022/07/01 05:08:59;;;;;;;22.05;14.55;;;;;;;14.57;83.21;101573.69;5013011;28;20438;-83
2022/07/01 05:11:25;;;;;;;23.50;14.15;;;;;;;14.52;83.69;101581.66;5013078;28;20030;-84
2022/07/01 05:13:50;;;;;;;19.67;13.95;;;;;;;14.53;83.59;101579.88;5011993;28;20426;-84
2022/07/01 05:16:17;;;;;;;18.08;12.48;;;;;;;14.64;83.16;101586.13;5012080;28;20124;-83
2022/07/01 05:24:11;;;;;;;16.52;11.13;;;;;;;14.90;81.78;101580.97;4998589;28;20402;-84
2022/07/01 05:26:37;;;;;;;17.83;10.45;;;;;;;14.96;81.61;101577.44;5011998;28;20033;-84
2022/07/01 05:29:02;;;;;;;16.92;10.15;;;;;;;14.93;81.12;101567.66;5015452;28;20026;-84
2022/07/01 05:31:28;;;;;;;14.82;9.90;;;;;;;14.89;81.22;101564.97;5016950;28;20100;-84
2022/07/01 05:33:54;;;;;;;15.00;9.63;;;;;;;14.88;81.43;101572.06;4999567;28;20057;-84
2022/07/01 05:36:20;;;;;;;16.70;9.40;;;;;;;14.90;81.73;101570.31;5017087;28;20522;-84
2022/07/01 05:38:46;;;;;;;15.43;9.48;;;;;;;14.90;81.33;101572.06;5016362;28;20042;-83
2022/07/01 05:41:12;;;;;;;17.75;8.82;;;;;;;14.96;82.03;101562.34;5031954;28;20466;-83
2022/07/01 05:43:37;;;;;;;14.55;9.23;;;;;;;14.92;81.27;101571.22;5015169;28;20125;-84
2022/07/01 05:46:02;;;;;;;12.48;8.70;;;;;;;14.96;81.16;101558.81;5031774;28;20061;-83
2022/07/01 05:48:28;;;;;;;14.57;9.55;;;;;;;15.05;81.36;101560.63;5016557;28;20038;-83
2022/07/01 05:50:53;;;;;;;16.60;9.18;;;;;;;15.08;80.29;101565.97;5015637;28;20080;-83
2022/07/01 05:53:19;;;;;;;13.93;9.48;;;;;;;15.05;80.69;101572.16;5031839;28;20117;-83
2022/07/01 05:55:45;;;;;;;15.30;9.43;;;;;;;14.99;80.41;101573.03;5015239;28;20502;-83
2022/07/01 05:58:11;;;;;;;14.85;9.63;;;;;;;14.96;80.72;101582.75;5016520;28;20405;-83
2022/07/01 06:00:37;;;;;;;15.13;9.70;;;;;;;15.05;80.67;101582.78;5016436;28;20040;-83
2022/07/01 06:03:03;;;;;;;16.23;9.60;;;;;;;15.24;80.61;101576.63;5016373;28;20033;-83
2022/07/01 06:05:30;;;;;;;17.92;9.88;;;;;;;15.48;80.11;101577.63;5016389;28;20111;-83
2022/07/01 06:07:55;;;;;;;15.45;9.70;;;;;;;15.56;79.34;101577.63;4998776;28;20026;-83
2022/07/01 06:10:20;;;;;;;12.75;9.23;;;;;;;15.65;79.03;101589.22;5014885;28;20040;-83
2022/07/01 06:12:46;;;;;;;21.80;9.73;;;;;;;15.65;78.62;101573.25;5014904;28;20030;-83
2022/07/01 06:15:12;;;;;;;18.55;9.93;;;;;;;15.66;78.44;101567.00;4998264;28;20073;-83
2022/07/01 06:17:39;;;;;;;13.80;9.70;;;;;;;15.69;78.37;101575.03;5014778;28;20124;-83
2022/07/01 06:20:06;;;;;;;16.55;10.15;;;;;;;15.73;78.01;101573.25;5016069;28;20030;-83
2022/07/01 06:22:32;;;;;;;14.98;9.82;;;;;;;15.88;78.07;101577.69;5014445;28;20034;-83
2022/07/01 06:24:58;;;;;;;13.82;9.00;;;;;;;16.00;77.38;101580.38;5014651;28;20474;-83
2022/07/01 06:27:24;;;;;;;15.95;9.90;;;;;;;16.08;77.13;101561.72;5016073;28;20474;-88
2022/07/01 06:29:50;;;;;;;15.45;9.52;;;;;;;16.21;76.51;101569.69;5014739;28;20122;-83
2022/07/01 06:32:16;;;;;;;15.57;9.32;;;;;;;16.17;76.40;101577.69;5014767;28;20088;-82
2022/07/01 06:34:41;;;;;;;14.93;9.13;;;;;;;16.29;75.38;101569.69;5015431;28;20030;-83
2022/07/01 06:37:06;;;;;;;19.10;9.18;;;;;;;16.31;75.56;101559.91;5014263;28;20034;-82
2022/07/01 06:39:32;;;;;;;14.38;8.68;;;;;;;16.46;74.69;101559.88;5030028;28;20084;-83
2022/07/01 06:41:57;;;;;;;12.35;8.60;;;;;;;16.54;74.07;101567.88;5015682;28;20029;-82
2022/07/01 06:44:23;;;;;;;14.48;8.30;;;;;;;16.73;73.65;101568.75;5015890;28;20034;-82
2022/07/01 06:46:48;;;;;;;16.75;8.27;;;;;;;16.78;72.53;101570.50;5030797;28;20038;-82
2022/07/01 06:49:14;;;;;;;16.30;8.32;;;;;;;16.87;71.78;101574.03;5014367;28;20088;-82
2022/07/01 06:51:39;;;;;;;12.65;7.72;;;;;;;17.03;71.59;101573.06;5015264;28;20030;-83
2022/07/01 06:54:05;;;;;;;10.68;7.55;;;;;;;17.22;71.06;101556.09;5014280;28;20037;-83
2022/07/01 06:56:30;;;;;;;14.48;8.18;;;;;;;17.40;70.39;101567.56;5015113;28;20428;-83
2022/07/01 06:58:56;;;;;;;14.80;7.38;;;;;;;17.45;69.17;101565.75;5015141;28;20029;-82
2022/07/01 07:01:22;;;;;;;13.38;7.75;;;;;;;17.65;69.56;101570.97;5014031;28;20041;-82
2022/07/01 07:03:47;;;;;;;10.85;6.88;;;;;;;17.83;68.90;101578.88;5015152;28;20034;-82
2022/07/01 07:06:12;;;;;;;11.38;7.35;;;;;;;17.92;67.79;101570.78;5015213;28;20033;-82
2022/07/01 07:08:38;;;;;;;11.68;6.82;;;;;;;18.07;66.41;101582.25;5014723;28;20127;-84
2022/07/01 07:11:04;;;;;;;13.30;6.53;;;;;;;18.10;66.35;101582.25;5030276;28;20121;-83
2022/07/01 07:13:29;;;;;;;13.60;6.53;;;;;;;18.27;66.13;101596.34;5014946;28;20038;-82
2022/07/01 07:15:54;;;;;;;11.80;6.70;;;;;;;18.42;66.01;101601.56;5015114;28;20118;-82
2022/07/01 07:18:20;;;;;;;9.98;5.82;;;;;;;18.27;63.43;101596.34;5013930;28;20482;-82
2022/07/01 07:20:47;;;;;;;9.73;5.13;;;;;;;18.18;64.85;101613.38;5014802;28;20367;-82
2022/07/01 07:23:13;;;;;;;9.43;5.32;;;;;;;17.96;65.19;101604.63;5013540;28;20030;-82
2022/07/01 07:25:39;;;;;;;11.02;5.60;;;;;;;17.90;65.20;101598.44;5014620;28;20034;-82
2022/07/01 07:28:04;;;;;;;13.50;5.00;;;;;;;18.00;65.06;101600.16;5013368;28;20037;-83
2022/07/01 07:30:29;;;;;;;8.52;4.82;;;;;;;18.09;63.84;101600.06;5014764;28;20099;-82
2022/07/01 07:32:55;;;;;;;9.85;4.97;;;;;;;18.16;63.57;101603.59;5029786;28;20033;-82
2022/07/01 07:35:20;;;;;;;8.98;4.32;;;;;;;18.27;63.25;101613.28;5013346;28;20554;-82
2022/07/01 07:37:46;;;;;;;9.73;4.20;;;;;;;18.39;63.53;101592.69;5014405;28;20479;-82
2022/07/01 07:40:17;;;;;;;9.93;4.32;;;;;;;18.56;61.89;101620.16;5012816;28;20034;-82
2022/07/01 07:42:44;;;;;;;10.27;4.05;;;;;;;18.62;62.93;101613.84;5014449;28;20022;-82
2022/07/01 07:45:11;;;;;;;8.30;4.35;;;;;;;18.68;63.65;101622.72;5013201;28;20041;-82
2022/07/01 07:47:37;;;;;;;8.90;3.75;;;;;;;18.68;61.40;101621.84;5014422;28;20030;-82
2022/07/01 07:50:04;;;;;;;11.63;3.60;;;;;;;18.74;60.48;101629.81;5013715;28;20045;-82
2022/07/01 07:52:30;;;;;;;8.15;3.20;;;;;;;18.71;59.52;101621.81;5029307;28;20498;-81
2022/07/01 07:54:55;;;;;;;10.05;3.10;;;;;;;18.67;60.72;101625.41;5014262;28;20042;-82
2022/07/01 07:57:21;;;;;;;8.45;2.95;;;;;;;18.78;60.17;101623.53;5013005;28;20398;-81
2022/07/01 07:59:46;;;;;;;7.35;2.80;;;;;;;19.01;60.04;101634.91;5014002;28;20516;-82
2022/07/01 08:02:12;;;;;;;7.53;2.85;;;;;;;19.17;59.10;101621.31;5013993;28;20084;-82
2022/07/01 08:04:37;;;;;;;6.68;2.92;;;;;;;19.07;57.08;101636.59;5014169;28;20112;-83
2022/07/01 08:07:03;;;;;;;5.90;2.95;;;;;;;19.17;58.53;101640.06;5013913;28;20026;-81
2022/07/01 08:09:28;;;;;;;9.55;2.50;;;;;;;19.38;56.49;101637.09;5013823;28;20553;-82
2022/07/01 08:11:54;;;;;;;4.78;2.30;;;;;;;19.59;55.32;101627.91;5028859;28;20096;-81
2022/07/01 08:14:19;;;;;;;4.88;2.20;;;;;;;19.76;55.45;101635.72;5013671;28;20050;-81
2022/07/01 08:16:45;;;;;;;8.02;2.08;;;;;;;20.00;54.11;101635.38;5013742;28;20029;-81
2022/07/01 08:19:10;;;;;;;6.45;1.88;;;;;;;20.16;52.28;101649.41;5012493;28;20449;-81
2022/07/01 08:21:36;;;;;;;4.93;1.98;;;;;;;20.27;52.06;101650.13;5028963;28;20073;-81
2022/07/01 08:24:01;;;;;;;4.70;1.88;;;;;;;20.38;51.27;101639.19;5013432;28;20029;-81
2022/07/01 08:26:26;;;;;;;5.35;1.80;;;;;;;20.41;49.51;101660.63;5012593;28;20389;-81
2022/07/01 08:28:52;;;;;;;5.88;1.90;;;;;;;20.38;50.01;101649.94;5013650;28;20521;-81
2022/07/01 08:31:17;;;;;;;5.55;1.80;;;;;;;20.51;49.24;101658.69;5012362;28;20113;-81
2022/07/01 08:33:43;;;;;;;5.55;1.98;;;;;;;20.66;49.16;101657.56;5012532;28;20435;-81
2022/07/01 08:36:09;;;;;;;3.55;1.63;;;;;;;20.90;48.28;101664.28;5012229;28;20029;-81
2022/07/01 08:38:36;;;;;;;3.95;1.67;;;;;;;21.07;48.03;101663.94;5013176;28;20398;-81
2022/07/01 08:41:02;;;;;;;5.35;1.92;;;;;;;21.24;48.46;101661.78;5013599;28;20037;-81
2022/07/01 08:43:28;;;;;;;4.03;1.80;;;;;;;21.37;47.49;101679.50;5012435;28;20034;-81
2022/07/01 08:45:53;;;;;;;5.30;1.80;;;;;;;21.01;47.49;101675.69;5028466;28;20060;-81
2022/07/01 08:48:19;;;;;;;3.63;1.63;;;;;;;21.05;48.12;101679.22;5012325;28;20057;-82
2022/07/01 08:50:44;;;;;;;4.32;1.98;;;;;;;20.92;47.80;101681.25;5012043;28;20494;-81
2022/07/01 08:53:12;;;;;;;6.18;1.85;;;;;;;21.08;49.32;101684.53;5013211;28;20414;-81
2022/07/01 08:58:24;;;;;;;5.40;1.52;;;;;;;21.15;48.12;101691.56;5026455;28;20049;-80
2022/07/01 09:00:49;;;;;;;6.47;1.95;;;;;;;21.39;47.97;101687.53;5013369;28;20029;-81
2022/07/01 09:03:15;;;;;;;3.90;1.65;;;;;;;21.78;46.85;101691.16;5016348;28;20034;-81
2022/07/01 09:05:48;;;;;;;5.15;2.00;;;;;;;22.01;46.75;101687.94;5032450;28;20486;-81
2022/07/01 09:08:13;;;;;;;4.45;1.90;;;;;;;22.04;46.49;101684.31;5016921;28;20037;-81
2022/07/01 09:10:38;;;;;;;4.30;1.73;;;;;;;22.08;45.21;101672.53;5017297;28;20461;-81
2022/07/01 09:13:09;;;;;;;3.97;1.70;;;;;;;22.13;45.50;101681.44;5016027;28;20038;-80
2022/07/01 09:15:36;;;;;;;4.78;1.90;;;;;;;22.08;43.03;101696.78;5017033;28;20053;-80
2022/07/01 09:18:14;;;;;;;5.07;2.08;;;;;;;22.01;46.04;101685.25;5017212;28;20034;-81
2022/07/01 09:20:43;;;;;;;8.40;2.08;;;;;;;22.04;44.81;101670.84;5015714;28;20478;-80
2022/07/01 09:23:11;;;;;;;4.70;2.00;;;;;;;22.07;45.37;101684.25;5017167;28;20030;-81
2022/07/01 09:25:45;;;;;;;6.90;2.05;;;;;;;22.02;44.81;101678.97;5016786;28;20058;-80
2022/07/01 09:28:18;;;;;;;4.15;1.80;;;;;;;21.74;46.02;101684.06;5016907;28;20466;-80
2022/07/01 09:30:53;;;;;;;4.38;2.00;;;;;;;21.73;45.67;101683.19;5017005;28;20470;-81
2022/07/01 09:33:19;;;;;;;4.28;1.80;;;;;;;22.12;45.16;101676.94;5016848;28;20208;-81
2022/07/01 09:35:49;;;;;;;6.43;2.15;;;;;;;22.06;45.19;101682.47;5018847;28;20049;-80
2022/07/01 09:38:16;;;;;;;6.05;2.20;;;;;;;22.19;45.58;101679.47;5017683;28;20034;-81
2022/07/01 09:40:49;;;;;;;7.03;2.30;;;;;;;22.54;46.17;101685.78;5018255;28;20033;-80
2022/07/01 09:43:17;;;;;;;9.02;2.20;;;;;;;22.45;45.18;101688.72;5017961;28;20033;-80
2022/07/01 09:45:52;;;;;;;5.30;2.05;;;;;;;22.33;45.33;101681.84;5017382;28;20034;-80
2022/07/01 09:48:17;;;;;;;4.80;2.03;;;;;;;22.52;42.94;101686.75;5016385;28;20367;-81
2022/07/01 09:50:44;;;;;;;4.18;2.20;;;;;;;22.67;42.51;101697.16;5016483;28;20080;-80
2022/07/01 09:53:10;;;;;;;6.85;2.10;;;;;;;22.84;44.06;101689.50;5016346;28;20061;-80
2022/07/01 09:55:37;;;;;;;6.40;1.90;;;;;;;23.03;44.08;101695.28;5016210;28;20382;-81
2022/07/01 09:58:02;;;;;;;3.88;1.77;;;;;;;23.35;41.65;101693.53;5016221;28;20042;-81
2022/07/01 10:00:31;;;;;;;5.00;1.80;;;;;;;23.76;43.79;101691.44;5016490;28;20045;-81
2022/07/01 10:02:58;;;;;;;3.40;1.75;;;;;;;23.79;41.19;101688.66;5016293;28;20045;-81
2022/07/01 10:05:26;;;;;;;3.03;1.77;;;;;;;23.94;40.86;101698.97;5014867;28;20033;-81
2022/07/01 10:08:10;;;;;;;6.45;2.15;;;;;;;23.95;41.26;101701.63;5015816;28;20042;-81
2022/07/01 10:10:51;;;;;;;6.45;2.22;;;;;;;23.87;41.82;101700.97;5016135;28;20026;-79
2022/07/01 10:13:21;;;;;;;8.50;2.15;;;;;;;24.04;42.13;101713.06;5015331;28;20030;-78
2022/07/01 10:15:48;;;;;;;5.25;1.90;;;;;;;23.74;41.00;101721.19;5015511;28;20034;-78
2022/07/01 10:18:27;;;;;;;5.90;2.00;;;;;;;23.55;41.34;101728.00;5030947;28;20037;-78
2022/07/01 10:20:55;;;;;;;4.38;1.95;;;;;;;23.26;41.66;101721.63;5015828;28;20034;-79
2022/07/01 10:23:28;;;;;;;4.28;2.00;;;;;;;23.56;42.68;101725.28;5015964;28;20139;-79
2022/07/01 10:26:02;;;;;;;5.28;1.70;;;;;;;23.91;41.10;101720.66;5016000;28;20034;-79
2022/07/01 10:28:45;;;;;;;3.33;1.80;;;;;;;23.93;39.53;101737.69;5016134;28;20373;-79
2022/07/01 10:31:16;;;;;;;5.65;1.83;;;;;;;23.81;39.76;101732.66;5015652;28;20044;-80
2022/07/01 10:33:43;;;;;;;5.22;1.80;;;;;;;23.70;40.84;101747.38;5015705;28;20037;-79
2022/07/01 10:36:35;;;;;;;4.15;1.90;;;;;;;23.46;40.20;101739.94;5015650;28;20481;-82
2022/07/01 10:39:00;;;;;;;3.92;1.73;;;;;;;23.33;39.40;101736.69;5014228;28;20049;-82
2022/07/01 10:41:31;;;;;;;5.68;1.90;;;;;;;23.50;40.74;101730.84;5015810;28;20036;-83
2022/07/01 10:44:00;;;;;;;7.82;1.90;;;;;;;23.73;39.47;101741.00;5014133;28;20382;-82
2022/07/01 10:46:56;;;;;;;3.70;1.85;;;;;;;23.77;39.82;101723.78;5015374;28;20041;-82
2022/07/01 10:49:34;;;;;;;5.47;2.00;;;;;;;23.99;39.98;101729.41;5014464;28;20041;-82
2022/07/01 10:51:59;;;;;;;6.03;1.90;;;;;;;23.99;39.06;101719.50;5015266;28;20034;-82
2022/07/01 10:54:33;;;;;;;5.18;1.80;;;;;;;23.81;39.49;101738.06;5015545;28;20033;-82
2022/07/01 10:57:20;;;;;;;7.25;1.80;;;;;;;23.43;40.86;101716.66;5015193;28;20064;-82
2022/07/01 10:59:53;;;;;;;4.18;1.75;;;;;;;23.55;39.53;101726.19;5015224;28;20030;-81
2022/07/01 11:02:28;;;;;;;3.95;1.83;;;;;;;24.08;40.05;101722.84;5015494;28;20036;-81
2022/07/01 11:04:57;;;;;;;4.45;1.70;;;;;;;24.38;38.15;101716.47;5015302;28;20030;-82
2022/07/01 11:07:34;;;;;;;6.38;1.90;;;;;;;24.22;38.28;101718.75;5015355;28;20034;-82
2022/07/01 11:10:02;;;;;;;5.10;1.90;;;;;;;24.42;40.88;101707.34;5013612;28;20398;-83
2022/07/01 11:12:28;;;;;;;4.60;1.85;;;;;;;24.38;39.58;101702.97;5014769;28;20542;-79
2022/07/01 11:14:55;;;;;;;5.07;1.80;;;;;;;24.51;36.55;101702.56;5014715;28;20053;-82
2022/07/01 11:17:21;;;;;;;6.10;1.90;;;;;;;24.28;39.05;101714.97;5030373;28;20038;-82
2022/07/01 11:19:53;;;;;;;5.07;1.80;;;;;;;24.34;37.78;101703.09;5015097;28;20038;-82
2022/07/01 11:22:23;;;;;;;3.57;1.60;;;;;;;24.69;37.19;101716.31;5015398;28;20038;-82
2022/07/01 11:24:52;;;;;;;6.07;1.60;;;;;;;25.08;38.58;101713.19;5014734;28;20049;-82
2022/07/01 11:27:18;;;;;;;5.65;2.00;;;;;;;25.01;38.61;101713.44;5014642;28;20080;-82